Time;durP1;ratioP1;P1;durP2;ratioP2;P2;SDS_P1;SDS_P2;PMS_P1;PMS_P2;Temp;Humidity;BMP_temperature;BMP_pressure;BME280_temperature;BME280_humidity;BME280_pressure;Samples;Min_cycle;Max_cycle;Signal;HPM_P1;HPM_P2
2023/09/03 00:02:23;;;;;;;2.63;2.30;;;17.40;99.90;;;;;;5255840;28;20035;-70
2023/09/03 00:04:56;;;;;;;2.55;2.20;;;17.40;99.90;;;;;;5262656;28;20062;-70
2023/09/03 00:07:30;;;;;;;2.78;2.08;;;17.50;99.90;;;;;;5259752;28;20225;-70
2023/09/03 00:10:06;;;;;;;1.80;1.70;;;17.40;99.90;;;;;;5266146;28;20032;-71
2023/09/03 00:12:38;;;;;;;1.95;1.75;;;17.40;99.90;;;;;;5248182;28;20071;-70
2023/09/03 00:15:09;;;;;;;2.08;1.88;;;17.50;99.90;;;;;;5271231;28;20368;-70
2023/09/03 00:17:40;;;;;;;2.45;1.92;;;17.70;99.90;;;;;;5270137;28;20045;-70
2023/09/03 00:20:11;;;;;;;2.13;1.90;;;17.70;99.90;;;;;;5266649;28;20028;-70
2023/09/03 00:22:47;;;;;;;2.22;1.73;;;17.80;99.90;;;;;;5295181;27;20035;-70
2023/09/03 00:25:24;;;;;;;2.90;1.88;;;17.80;99.90;;;;;;5265497;28;20676;-70
2023/09/03 00:27:55;;;;;;;2.00;1.80;;;17.80;99.90;;;;;;5249038;28;20041;-69
2023/09/03 00:30:29;;;;;;;2.80;2.53;;;17.80;99.90;;;;;;5264290;28;20054;-69
2023/09/03 00:33:00;;;;;;;2.78;2.13;;;17.80;99.90;;;;;;5292734;27;20574;-70
2023/09/03 00:35:34;;;;;;;1.70;1.60;;;17.80;99.90;;;;;;5274499;28;20032;-69
2023/09/03 00:38:05;;;;;;;2.17;1.90;;;17.80;99.90;;;;;;5245423;28;20039;-69
2023/09/03 00:40:41;;;;;;;2.90;2.00;;;17.80;99.90;;;;;;5263755;28;20030;-70
2023/09/03 00:43:15;;;;;;;2.10;1.88;;;17.70;99.90;;;;;;5248613;28;20248;-70
2023/09/03 00:45:53;;;;;;;2.20;2.00;;;17.70;99.90;;;;;;5264252;28;20236;-71
2023/09/03 00:48:28;;;;;;;2.35;1.85;;;17.70;99.90;;;;;;5260371;28;20035;-70
2023/09/03 00:51:08;;;;;;;2.20;1.80;;;17.80;99.90;;;;;;5239594;28;20046;-72
2023/09/03 00:53:47;;;;;;;2.72;1.98;;;17.80;99.90;;;;;;5264202;28;20023;-70
2023/09/03 00:56:23;;;;;;;2.20;1.70;;;17.80;99.90;;;;;;5248094;28;20031;-70
2023/09/03 00:58:59;;;;;;;1.90;1.70;;;17.80;99.90;;;;;;5272011;28;20404;-70
2023/09/03 01:01:32;;;;;;;1.92;1.70;;;17.90;99.90;;;;;;5300458;22;20299;-62
2023/09/03 01:04:07;;;;;;;2.42;2.08;;;18.00;99.90;;;;;;5251777;28;20044;-63
2023/09/03 01:06:38;;;;;;;1.90;1.80;;;18.00;99.90;;;;;;5258945;28;20028;-61
2023/09/03 01:09:10;;;;;;;3.63;1.75;;;18.10;99.90;;;;;;5255806;28;20039;-63
2023/09/03 01:11:46;;;;;;;2.72;1.90;;;18.30;99.90;;;;;;5251404;28;20337;-62
2023/09/03 01:14:36;;;;;;;2.47;2.03;;;18.40;99.90;;;;;;5223720;28;20498;-62
2023/09/03 01:17:26;;;;;;;2.28;1.65;;;18.50;99.90;;;;;;5222893;28;20118;-64
2023/09/03 01:20:06;;;;;;;1.85;1.75;;;18.50;99.90;;;;;;5258303;28;20016;-63
2023/09/03 01:22:58;;;;;;;2.55;1.80;;;18.40;93.80;;;;;;5260553;28;20256;-63
2023/09/03 01:25:59;;;;;;;5.55;1.90;;;18.40;81.60;;;;;;5241433;28;20042;-60
2023/09/03 01:28:38;;;;;;;1.95;1.63;;;18.40;99.90;;;;;;5256886;28;20456;-63
2023/09/03 01:31:13;;;;;;;2.05;1.80;;;18.50;99.90;;;;;;5229199;28;20036;-63
2023/09/03 01:33:48;;;;;;;2.15;1.55;;;18.50;59.20;;;;;;5233300;28;20024;-62
2023/09/03 01:36:25;;;;;;;1.88;1.67;;;18.50;99.90;;;;;;5252089;28;20385;-62
2023/09/03 01:39:02;;;;;;;3.08;1.67;;;18.50;99.90;;;;;;5240633;28;20024;-63
2023/09/03 01:41:35;;;;;;;1.70;1.33;;;18.50;99.90;;;;;;5275984;28;20034;-63
2023/09/03 01:44:09;;;;;;;2.92;1.92;;;18.50;99.90;;;;;;5259144;28;20039;-62
2023/09/03 01:46:52;;;;;;;2.35;1.63;;;18.50;99.90;;;;;;5237244;28;20033;-61
2023/09/03 01:49:36;;;;;;;3.15;1.70;;;18.40;99.90;;;;;;5255812;28;20040;-63
2023/09/03 01:52:10;;;;;;;2.00;1.75;;;18.30;99.90;;;;;;5235836;28;20036;-62
2023/09/03 01:54:49;;;;;;;3.75;1.88;;;18.30;99.90;;;;;;5249822;28;20571;-63
2023/09/03 01:57:34;;;;;;;3.55;1.95;;;18.20;99.90;;;;;;5257673;28;20051;-63
2023/09/03 02:00:07;;;;;;;;;;;18.10;99.90;;;;;;5237439;28;20501;-63
2023/09/03 02:02:49;;;;;;;2.88;1.65;;;18.10;99.90;;;;;;5243858;28;19931;-62
2023/09/03 02:05:22;;;;;;;2.28;1.70;;;18.10;99.90;;;;;;5238933;28;20027;-63
2023/09/03 02:07:58;;;;;;;1.80;1.70;;;18.00;99.90;;;;;;5219888;28;20040;-62
2023/09/03 02:10:29;;;;;;;1.73;1.63;;;17.90;99.90;;;;;;5236971;28;20024;-64
2023/09/03 02:13:02;;;;;;;2.35;2.15;;;17.90;99.90;;;;;;5253425;28;20067;-63
2023/09/03 02:15:35;;;;;;;2.13;1.88;;;17.90;99.90;;;;;;5245637;28;20042;-65
2023/09/03 02:18:12;;;;;;;2.05;1.85;;;17.80;99.90;;;;;;5201888;28;20356;-62
2023/09/03 02:20:43;;;;;;;1.60;1.50;;;17.70;99.90;;;;;;5217835;28;20032;-62
2023/09/03 02:23:18;;;;;;;3.65;1.80;;;17.70;99.90;;;;;;5230929;28;20029;-64
2023/09/03 02:26:00;;;;;;;1.98;1.73;;;17.70;99.90;;;;;;5240719;28;20363;-63
2023/09/03 02:28:35;;;;;;;3.13;2.05;;;17.60;99.90;;;;;;5237497;28;20580;-61
2023/09/03 02:31:09;;;;;;;1.75;1.65;;;17.60;99.90;;;;;;5240482;28;20046;-62
2023/09/03 02:33:40;;;;;;;2.22;1.90;;;17.60;99.90;;;;;;5236042;28;20032;-61
2023/09/03 02:36:11;;;;;;;1.92;1.77;;;17.60;99.90;;;;;;5238192;28;20020;-62
2023/09/03 02:38:43;;;;;;;2.75;2.00;;;17.70;99.90;;;;;;5224306;28;20040;-62
2023/09/03 02:41:14;;;;;;;2.20;2.00;;;17.60;99.90;;;;;;5202218;28;20041;-61
2023/09/03 02:43:45;;;;;;;2.60;1.50;;;17.60;99.90;;;;;;5217380;28;20368;-62
2023/09/03 02:46:16;;;;;;;2.38;1.80;;;17.70;99.90;;;;;;5238186;28;20132;-62
2023/09/03 02:48:47;;;;;;;2.05;1.90;;;17.70;99.90;;;;;;5247053;28;20055;-64
2023/09/03 02:51:21;;;;;;;7.00;2.53;;;17.70;99.90;;;;;;5241571;28;20031;-62
2023/09/03 02:53:54;;;;;;;2.35;1.95;;;17.60;99.90;;;;;;5222591;28;20542;-63
2023/09/03 02:56:29;;;;;;;6.38;2.17;;;17.60;99.90;;;;;;5229748;28;20016;-62
2023/09/03 02:59:00;;;;;;;2.00;1.80;;;17.60;99.90;;;;;;5212393;28;20036;-63
2023/09/03 03:01:34;;;;;;;1.85;1.70;;;17.60;99.90;;;;;;5201019;28;20051;-61
2023/09/03 03:04:06;;;;;;;2.30;2.10;;;17.60;99.90;;;;;;5234170;28;20032;-64
2023/09/03 03:06:37;;;;;;;1.80;1.70;;;17.60;99.90;;;;;;5201018;28;20043;-60
2023/09/03 03:09:08;;;;;;;2.30;1.83;;;17.50;99.90;;;;;;5225285;28;20356;-62
2023/09/03 03:11:42;;;;;;;4.43;2.03;;;17.50;99.90;;;;;;5230265;28;20118;-62
2023/09/03 03:14:16;;;;;;;1.83;1.65;;;17.50;99.90;;;;;;5217075;28;20037;-63
2023/09/03 03:16:50;;;;;;;2.60;2.40;;;17.50;99.90;;;;;;5223067;28;20213;-62
2023/09/03 03:19:25;;;;;;;2.25;1.95;;;17.40;99.90;;;;;;5234961;28;20025;-61
2023/09/03 03:21:59;;;;;;;2.00;1.80;;;17.40;99.90;;;;;;5231080;28;20030;-61
2023/09/03 03:24:36;;;;;;;1.90;1.80;;;17.50;99.90;;;;;;5241503;28;20051;-63
2023/09/03 03:27:13;;;;;;;2.45;2.00;;;17.50;99.90;;;;;;5248600;28;20028;-64
2023/09/03 03:29:46;;;;;;;2.03;1.83;;;17.70;99.90;;;;;;5237249;28;20047;-61
2023/09/03 03:32:20;;;;;;;1.95;1.63;;;17.80;99.90;;;;;;5219708;28;20024;-63
2023/09/03 03:34:55;;;;;;;2.10;1.90;;;17.90;99.90;;;;;;5221283;28;20032;-62
2023/09/03 03:37:26;;;;;;;3.15;2.28;;;18.00;99.90;;;;;;5237502;28;20047;-63
2023/09/03 03:39:58;;;;;;;4.82;1.70;;;18.10;99.90;;;;;;5234489;28;20028;-65
2023/09/03 03:42:34;;;;;;;1.88;1.73;;;18.10;99.90;;;;;;5232646;28;20354;-65
2023/09/03 03:45:08;;;;;;;1.73;1.63;;;18.10;99.90;;;;;;5212220;28;20036;-63
2023/09/03 03:47:42;;;;;;;;;;;18.00;99.90;;;;;;5235711;28;20025;-63
2023/09/03 03:50:15;;;;;;;2.05;1.83;;;17.90;99.90;;;;;;5222213;28;19904;-61
2023/09/03 03:52:46;;;;;;;2.05;1.75;;;17.80;99.90;;;;;;5201504;28;20037;-62
2023/09/03 03:55:22;;;;;;;2.00;1.70;;;17.70;99.90;;;;;;5221114;28;20036;-62
2023/09/03 03:57:54;;;;;;;2.08;1.80;;;17.60;99.90;;;;;;5229105;28;20050;-62
2023/09/03 04:00:27;;;;;;;2.90;1.80;;;17.60;99.90;;;;;;5253969;28;20036;-60
2023/09/03 04:03:01;;;;;;;2.58;2.15;;;17.60;99.90;;;;;;5222548;28;20044;-62
2023/09/03 04:05:32;;;;;;;3.33;2.75;;;17.40;99.90;;;;;;5242066;28;20234;-60
2023/09/03 04:08:03;;;;;;;2.00;1.80;;;17.40;99.90;;;;;;5240923;28;20035;-60
2023/09/03 04:10:37;;;;;;;1.95;1.50;;;17.30;99.90;;;;;;5252912;28;20040;-61
2023/09/03 04:13:08;;;;;;;2.00;1.80;;;17.30;99.90;;;;;;5220994;28;20044;-61
2023/09/03 04:15:40;;;;;;;2.90;1.65;;;17.40;99.90;;;;;;5239372;28;20046;-60
2023/09/03 04:18:11;;;;;;;3.78;1.80;;;17.50;99.90;;;;;;5223087;28;20176;-62
2023/09/03 04:20:45;;;;;;;1.88;1.77;;;17.70;99.90;;;;;;5214223;28;20523;-61
2023/09/03 04:23:16;;;;;;;2.10;1.88;;;17.80;99.90;;;;;;5234882;28;20035;-62
2023/09/03 04:25:51;;;;;;;1.92;1.60;;;18.00;99.90;;;;;;5241901;28;20577;-62
2023/09/03 04:28:25;;;;;;;2.28;1.80;;;18.10;99.90;;;;;;5237051;28;20040;-64
2023/09/03 04:31:04;;;;;;;2.00;1.80;;;18.20;8.70;;;;;;5239556;28;20189;-62
2023/09/03 04:33:36;;;;;;;2.13;1.92;;;18.20;17.90;;;;;;5240044;28;20028;-63
2023/09/03 04:36:08;;;;;;;1.77;1.63;;;18.30;28.70;;;;;;5227639;28;20032;-62
2023/09/03 04:38:42;;;;;;;2.83;1.75;;;18.30;21.50;;;;;;5254731;28;20031;-62
2023/09/03 04:41:15;;;;;;;1.92;1.83;;;18.40;1.00;;;;;;5224446;28;20586;-62
2023/09/03 04:43:46;;;;;;;2.60;1.88;;;18.50;1.00;;;;;;5242801;28;20067;-63
2023/09/03 04:46:18;;;;;;;2.10;1.90;;;18.50;1.00;;;;;;5222278;28;20032;-63
2023/09/03 04:48:52;;;;;;;1.67;1.58;;;18.60;1.00;;;;;;5238177;28;20045;-64
2023/09/03 04:51:23;;;;;;;1.77;1.67;;;18.70;1.00;;;;;;5213047;28;20039;-63
2023/09/03 04:53:57;;;;;;;2.10;1.80;;;18.80;1.00;;;;;;5240307;28;20036;-62
2023/09/03 04:56:28;;;;;;;1.70;1.60;;;18.90;1.00;;;;;;5239567;28;20032;-62
2023/09/03 04:59:02;;;;;;;1.65;1.55;;;19.00;1.00;;;;;;5248442;28;20072;-62
2023/09/03 05:01:34;;;;;;;1.73;1.63;;;19.00;1.00;;;;;;5209161;28;20041;-62
2023/09/03 05:04:08;;;;;;;1.30;1.20;;;19.00;1.00;;;;;;5222196;28;20134;-63
2023/09/03 05:06:39;;;;;;;1.70;1.60;;;19.20;1.00;;;;;;5241071;28;20047;-66
2023/09/03 05:09:14;;;;;;;1.40;1.27;;;19.20;1.00;;;;;;5236995;28;20024;-64
2023/09/03 05:11:45;;;;;;;1.55;1.45;;;19.20;1.00;;;;;;5235324;28;20154;-61
2023/09/03 05:14:17;;;;;;;2.22;1.70;;;19.30;1.00;;;;;;5225416;28;20032;-62
2023/09/03 05:16:48;;;;;;;1.52;1.30;;;19.30;1.00;;;;;;5242448;28;20032;-64
2023/09/03 05:19:22;;;;;;;1.80;1.70;;;19.40;1.00;;;;;;5237191;28;20032;-63
2023/09/03 05:21:56;;;;;;;6.90;1.40;;;19.40;1.00;;;;;;5219075;28;20029;-64
2023/09/03 05:24:29;;;;;;;1.95;1.85;;;19.50;1.00;;;;;;5201866;28;20071;-63
2023/09/03 05:27:07;;;;;;;4.10;1.77;;;19.50;1.00;;;;;;5201715;28;20024;-63
2023/09/03 05:29:38;;;;;;;1.42;1.25;;;19.50;1.00;;;;;;5241038;28;20438;-63
2023/09/03 05:32:11;;;;;;;1.75;1.38;;;19.50;1.00;;;;;;5229997;28;20260;-63
2023/09/03 05:34:42;;;;;;;2.72;1.70;;;19.60;1.00;;;;;;5202136;28;20055;-62
2023/09/03 05:37:13;;;;;;;1.80;1.30;;;19.60;1.00;;;;;;5218339;28;20029;-62
2023/09/03 05:39:44;;;;;;;1.70;1.60;;;19.60;1.00;;;;;;5219832;28;20036;-62
2023/09/03 05:42:16;;;;;;;1.27;1.17;;;19.60;1.00;;;;;;5233738;28;20060;-62
2023/09/03 05:44:48;;;;;;;1.33;1.23;;;19.60;1.00;;;;;;5219776;28;20047;-61
2023/09/03 05:47:19;;;;;;;1.60;1.50;;;19.50;1.00;;;;;;5220578;28;20348;-61
2023/09/03 05:49:58;;;;;;;1.50;1.40;;;19.50;1.00;;;;;;5248938;28;20032;-62
2023/09/03 05:52:29;;;;;;;1.60;1.50;;;19.50;1.00;;;;;;5230451;28;20036;-61
2023/09/03 05:55:01;;;;;;;1.70;1.40;;;19.50;1.00;;;;;;5259791;28;20031;-61
2023/09/03 05:57:35;;;;;;;1.77;1.40;;;19.50;1.00;;;;;;5228712;28;20028;-62
2023/09/03 06:00:07;;;;;;;2.55;1.60;;;19.50;1.00;;;;;;5217334;28;20032;-64
2023/09/03 06:02:40;;;;;;;1.98;1.42;;;19.50;1.00;;;;;;5219072;28;20571;-63
2023/09/03 06:05:11;;;;;;;2.28;1.58;;;19.60;1.00;;;;;;5201185;28;20045;-63
2023/09/03 06:07:45;;;;;;;1.80;1.50;;;19.70;1.00;;;;;;5219189;28;20029;-64
2023/09/03 06:10:16;;;;;;;1.52;1.42;;;19.80;1.00;;;;;;5224274;28;20028;-63
2023/09/03 06:12:48;;;;;;;1.92;1.67;;;19.90;1.00;;;;;;5221689;28;20032;-63
2023/09/03 06:15:22;;;;;;;2.22;1.52;;;20.10;1.00;;;;;;5220168;28;20040;-63
2023/09/03 06:17:53;;;;;;;2.42;1.20;;;20.30;1.00;;;;;;5240829;28;20038;-62
2023/09/03 06:20:25;;;;;;;2.38;1.42;;;20.30;99.90;;;;;;5216141;28;20037;-64
2023/09/03 06:22:56;;;;;;;1.70;1.60;;;20.20;99.90;;;;;;5210730;28;20031;-61
2023/09/03 06:25:27;;;;;;;1.60;1.50;;;20.00;1.00;;;;;;5234413;28;20355;-63
2023/09/03 06:27:59;;;;;;;1.70;1.60;;;19.80;1.00;;;;;;5236947;28;20332;-61
2023/09/03 06:30:32;;;;;;;1.63;1.52;;;19.80;1.00;;;;;;5225015;28;20037;-62
2023/09/03 06:33:09;;;;;;;2.10;1.90;;;19.70;1.00;;;;;;5243528;28;20032;-63
2023/09/03 06:35:40;;;;;;;1.88;1.70;;;19.60;1.00;;;;;;5222741;28;20027;-62
2023/09/03 06:38:12;;;;;;;2.08;1.98;;;19.50;1.00;;;;;;5240922;28;20722;-62
2023/09/03 06:40:44;;;;;;;1.85;1.67;;;19.50;1.00;;;;;;5234158;28;20036;-64
2023/09/03 06:43:16;;;;;;;5.03;1.35;;;19.40;1.00;;;;;;5222158;28;20047;-60
2023/09/03 06:45:49;;;;;;;2.30;2.00;;;19.40;1.00;;;;;;5245457;28;20040;-62
2023/09/03 06:48:22;;;;;;;2.28;1.73;;;19.30;1.00;;;;;;5222492;28;20348;-62
2023/09/03 06:50:54;;;;;;;1.90;1.80;;;19.40;1.00;;;;;;5215504;28;20036;-64
2023/09/03 06:53:27;;;;;;;1.90;1.67;;;19.50;1.00;;;;;;5214787;28;20041;-60
2023/09/03 06:55:58;;;;;;;2.30;2.10;;;19.50;1.00;;;;;;5220430;28;20461;-63
2023/09/03 06:58:35;;;;;;;1.85;1.60;;;19.50;1.00;;;;;;5233308;28;20032;-61
2023/09/03 07:01:07;;;;;;;2.22;2.00;;;19.60;1.00;;;;;;5208033;28;20260;-61
2023/09/03 07:03:43;;;;;;;2.53;1.80;;;19.70;1.00;;;;;;5233340;28;20036;-60
2023/09/03 07:06:14;;;;;;;2.50;2.30;;;19.70;1.00;;;;;;5237942;28;20039;-59
2023/09/03 07:08:46;;;;;;;2.80;2.00;;;19.70;1.00;;;;;;5240128;28;20193;-63
2023/09/03 07:11:21;;;;;;;1.98;1.80;;;19.70;1.00;;;;;;5235759;28;20317;-63
2023/09/03 07:13:55;;;;;;;1.80;1.70;;;19.80;1.00;;;;;;5220811;28;20054;-63
2023/09/03 07:16:28;;;;;;;1.77;1.63;;;19.90;1.00;;;;;;5234426;28;20032;-62
2023/09/03 07:19:00;;;;;;;1.77;1.67;;;20.00;1.00;;;;;;5221513;28;20028;-64
2023/09/03 07:21:31;;;;;;;2.67;1.65;;;20.10;1.00;;;;;;5221780;28;20048;-64
2023/09/03 07:24:04;;;;;;;2.10;1.90;;;20.10;1.00;;;;;;5237294;28;20040;-62
2023/09/03 07:26:39;;;;;;;3.17;2.00;;;20.20;1.00;;;;;;5221156;28;20246;-62
2023/09/03 07:29:12;;;;;;;2.47;2.10;;;20.20;1.00;;;;;;5233025;28;20020;-64
2023/09/03 07:31:46;;;;;;;2.17;1.98;;;20.30;1.00;;;;;;5241138;28;20238;-62
2023/09/03 07:34:17;;;;;;;3.22;2.05;;;20.20;1.00;;;;;;5245117;28;20248;-65
2023/09/03 07:36:51;;;;;;;1.60;1.50;;;20.30;1.00;;;;;;5261769;28;20310;-63
2023/09/03 07:39:25;;;;;;;1.83;1.73;;;20.20;1.00;;;;;;5230465;28;20029;-63
2023/09/03 07:41:59;;;;;;;2.53;2.05;;;20.30;1.00;;;;;;5237289;28;20299;-63
2023/09/03 07:44:30;;;;;;;1.75;1.65;;;20.40;1.00;;;;;;5218583;28;20434;-62
2023/09/03 07:47:01;;;;;;;3.45;1.60;;;20.30;1.00;;;;;;5241335;28;20070;-61
2023/09/03 07:49:33;;;;;;;3.17;1.70;;;20.20;1.00;;;;;;5242843;28;20043;-63
2023/09/03 07:52:08;;;;;;;1.88;1.77;;;20.20;1.00;;;;;;5215697;28;20029;-60
2023/09/03 07:54:39;;;;;;;2.45;1.70;;;20.20;1.00;;;;;;5230153;28;20036;-65
2023/09/03 07:57:12;;;;;;;2.00;1.67;;;20.20;1.00;;;;;;5222830;28;20045;-63
2023/09/03 07:59:45;;;;;;;1.73;1.60;;;20.30;1.00;;;;;;5226395;28;20360;-64
2023/09/03 08:02:16;;;;;;;2.47;1.88;;;20.30;1.00;;;;;;5233908;28;20034;-63
2023/09/03 08:04:47;;;;;;;1.33;1.23;;;20.30;1.00;;;;;;5258950;28;20040;-62
2023/09/03 08:07:19;;;;;;;1.58;1.48;;;20.40;1.00;;;;;;5261708;28;20039;-62
2023/09/03 08:09:50;;;;;;;2.38;1.70;;;20.40;1.00;;;;;;5262565;28;20024;-60
2023/09/03 08:12:21;;;;;;;3.25;2.95;;;20.40;1.00;;;;;;5239327;28;20024;-63
2023/09/03 08:14:55;;;;;;;2.53;1.90;;;20.40;1.00;;;;;;5237918;28;20024;-63
2023/09/03 08:17:29;;;;;;;1.98;1.83;;;20.60;1.00;;;;;;5219971;28;20037;-63
2023/09/03 08:20:03;;;;;;;;;;;20.80;99.90;;;;;;5242590;28;20128;-63
2023/09/03 08:22:35;;;;;;;2.47;2.10;;;21.00;99.90;;;;;;5238900;28;19919;-62
2023/09/03 08:25:07;;;;;;;1.95;1.75;;;21.10;99.90;;;;;;5240931;28;20020;-66
2023/09/03 08:27:38;;;;;;;2.75;1.75;;;21.20;99.90;;;;;;5222985;28;20028;-64
2023/09/03 08:30:12;;;;;;;2.13;1.92;;;21.40;99.90;;;;;;5238598;28;20178;-62
2023/09/03 08:32:46;;;;;;;;;;;21.50;99.90;;;;;;5234180;28;20214;-63
2023/09/03 08:35:17;;;;;;;1.95;1.75;;;21.50;1.00;;;;;;5249293;28;20175;-61
2023/09/03 08:37:52;;;;;;;1.60;1.50;;;21.60;1.00;;;;;;5243217;28;20017;-63
2023/09/03 08:40:27;;;;;;;1.77;1.63;;;21.60;1.00;;;;;;5255662;28;20030;-62
2023/09/03 08:43:03;;;;;;;1.50;1.40;;;22.00;1.00;;;;;;5214464;28;20043;-64
2023/09/03 08:45:40;;;;;;;1.98;1.77;;;22.00;1.00;;;;;;5232505;28;20316;-63
2023/09/03 08:48:19;;;;;;;4.28;1.77;;;22.00;1.00;;;;;;5239231;28;20333;-63
2023/09/03 08:50:51;;;;;;;2.00;1.80;;;22.00;1.00;;;;;;5234394;28;20232;-63
2023/09/03 08:53:26;;;;;;;1.88;1.65;;;21.80;1.00;;;;;;5236948;28;20205;-63
2023/09/03 08:56:03;;;;;;;1.50;1.40;;;21.60;1.00;;;;;;5241109;28;20030;-64
2023/09/03 08:58:34;;;;;;;1.60;1.50;;;21.60;1.00;;;;;;5234269;28;20111;-62
2023/09/03 09:01:11;;;;;;;1.65;1.52;;;21.80;1.00;;;;;;5233337;28;20342;-64
2023/09/03 09:03:51;;;;;;;2.20;1.95;;;21.60;1.00;;;;;;5219767;28;20234;-64
2023/09/03 09:06:23;;;;;;;2.03;1.80;;;21.70;1.00;;;;;;5242050;28;20036;-63
2023/09/03 09:09:00;;;;;;;1.92;1.70;;;21.90;1.00;;;;;;5242586;28;20332;-65
2023/09/03 09:11:39;;;;;;;2.63;1.85;;;21.90;1.00;;;;;;5232353;28;20032;-63
2023/09/03 09:14:30;;;;;;;2.08;1.88;;;22.10;1.00;;;;;;5241237;28;20029;-63
2023/09/03 09:17:03;;;;;;;2.00;1.63;;;22.00;1.00;;;;;;5236650;28;20037;-64
2023/09/03 09:19:34;;;;;;;1.60;1.50;;;21.80;1.00;;;;;;5222564;28;20317;-63
2023/09/03 09:22:06;;;;;;;1.88;1.60;;;21.90;1.00;;;;;;5222872;28;20028;-65
2023/09/03 09:24:46;;;;;;;2.15;1.88;;;21.90;1.00;;;;;;5235478;28;20044;-62
2023/09/03 09:27:19;;;;;;;1.65;1.40;;;21.70;1.00;;;;;;5233451;28;20089;-64
2023/09/03 09:29:50;;;;;;;1.40;1.27;;;21.80;1.00;;;;;;5240398;28;20054;-61
2023/09/03 09:32:24;;;;;;;2.22;2.03;;;22.10;99.90;;;;;;5235072;28;20029;-64
2023/09/03 09:34:56;;;;;;;2.38;1.92;;;22.40;1.00;;;;;;5231822;28;20342;-62
2023/09/03 09:37:37;;;;;;;2.00;1.77;;;22.50;99.90;;;;;;5219784;28;20073;-63
2023/09/03 09:40:09;;;;;;;3.50;1.98;;;22.70;1.00;;;;;;5216984;28;20036;-62
2023/09/03 09:42:52;;;;;;;3.67;1.90;;;22.70;99.90;;;;;;5223888;28;20252;-64
2023/09/03 09:45:24;;;;;;;2.72;1.83;;;22.60;99.90;;;;;;5223210;28;20051;-64
2023/09/03 09:48:18;;;;;;;2.60;2.00;;;22.90;99.90;;;;;;5238740;28;20031;-63
2023/09/03 09:50:52;;;;;;;2.35;2.15;;;22.50;99.90;;;;;;5229705;28;20020;-64
2023/09/03 09:53:26;;;;;;;2.35;2.15;;;22.20;99.90;;;;;;5216423;28;20244;-61
2023/09/03 09:56:07;;;;;;;2.00;1.90;;;22.10;99.90;;;;;;5219807;28;20240;-61
2023/09/03 09:58:40;;;;;;;3.15;1.90;;;22.20;99.90;;;;;;5214360;28;20325;-62
2023/09/03 10:01:15;;;;;;;2.80;2.03;;;22.50;99.90;;;;;;5240104;28;20036;-62
2023/09/03 10:03:49;;;;;;;2.15;1.95;;;22.80;99.90;;;;;;5218584;28;20191;-61
2023/09/03 10:06:24;;;;;;;3.63;2.00;;;22.80;1.00;;;;;;5220016;28;20035;-65
2023/09/03 10:08:58;;;;;;;2.40;1.90;;;22.80;1.00;;;;;;5220008;28;20048;-62
2023/09/03 10:11:31;;;;;;;2.15;1.95;;;22.60;1.00;;;;;;5234223;28;20032;-65
2023/09/03 10:14:02;;;;;;;2.08;1.88;;;22.50;1.00;;;;;;5229592;28;20273;-62
2023/09/03 10:16:37;;;;;;;2.22;1.60;;;22.70;1.00;;;;;;5252259;28;20032;-63
2023/09/03 10:19:13;;;;;;;2.00;1.80;;;23.10;1.00;;;;;;5251614;28;20372;-63
2023/09/03 10:21:51;;;;;;;2.20;2.00;;;23.20;1.00;;;;;;5214260;28;20019;-63
2023/09/03 10:24:24;;;;;;;2.67;2.13;;;23.10;1.00;;;;;;5232479;28;20028;-64
2023/09/03 10:26:59;;;;;;;2.13;1.92;;;23.40;1.00;;;;;;5236293;28;20035;-63
2023/09/03 10:29:32;;;;;;;3.35;1.80;;;23.60;1.00;;;;;;5249743;28;20306;-62
2023/09/03 10:32:07;;;;;;;3.33;1.67;;;23.80;1.00;;;;;;5211278;28;20202;-62
2023/09/03 10:34:41;;;;;;;1.90;1.65;;;24.00;1.00;;;;;;5234845;28;20208;-65
2023/09/03 10:37:18;;;;;;;1.77;1.50;;;23.90;1.00;;;;;;5252687;28;20237;-62
2023/09/03 10:39:52;;;;;;;2.05;1.80;;;24.10;1.00;;;;;;5236296;28;20020;-64
2023/09/03 10:42:25;;;;;;;2.00;1.80;;;24.20;1.00;;;;;;5197793;28;20071;-64
2023/09/03 10:44:58;;;;;;;2.17;1.97;;;24.30;1.00;;;;;;5218929;28;20024;-61
2023/09/03 10:47:29;;;;;;;2.22;1.65;;;24.90;1.00;;;;;;5214929;28;20036;-64
2023/09/03 10:50:06;;;;;;;1.50;1.40;;;24.50;1.00;;;;;;5251533;28;20035;-62
2023/09/03 10:52:40;;;;;;;1.25;1.15;;;24.20;1.00;;;;;;5250418;28;20313;-61
2023/09/03 10:55:20;;;;;;;1.65;1.40;;;24.50;1.00;;;;;;5217943;28;20324;-63
2023/09/03 10:58:21;;;;;;;1.42;1.30;;;24.50;1.00;;;;;;5217350;28;20381;-63
2023/09/03 11:01:26;;;;;;;3.38;1.30;;;25.10;1.00;;;;;;5230498;28;20208;-62
2023/09/03 11:04:02;;;;;;;0.93;0.93;;;25.10;1.00;;;;;;5228346;28;20043;-63
2023/09/03 11:06:35;;;;;;;1.33;1.23;;;25.60;1.00;;;;;;5238614;28;20036;-62
2023/09/03 11:09:12;;;;;;;1.10;1.00;;;25.60;1.00;;;;;;5238077;28;20047;-63
2023/09/03 11:11:44;;;;;;;1.25;1.15;;;26.60;1.00;;;;;;5215855;28;20035;-62
2023/09/03 11:14:15;;;;;;;1.83;1.20;;;26.70;1.00;;;;;;5232885;28;20032;-63
2023/09/03 11:16:46;;;;;;;1.25;1.15;;;26.00;1.00;;;;;;5227628;28;20020;-63
2023/09/03 11:19:17;;;;;;;1.50;1.17;;;25.40;99.90;;;;;;5222149;28;20038;-62
2023/09/03 11:21:52;;;;;;;1.60;1.10;;;25.00;1.00;;;;;;5252291;28;20032;-62
2023/09/03 11:24:26;;;;;;;1.30;1.15;;;25.30;7.10;;;;;;5238117;28;20460;-64
2023/09/03 11:27:09;;;;;;;1.20;1.10;;;25.20;99.90;;;;;;5221396;28;20052;-61
2023/09/03 11:29:45;;;;;;;1.30;1.20;;;25.40;99.90;;;;;;5221271;28;20035;-64
2023/09/03 11:32:16;;;;;;;1.50;1.40;;;25.60;99.90;;;;;;5246003;28;20032;-62
2023/09/03 11:34:59;;;;;;;1.35;1.25;;;26.00;1.00;;;;;;5222137;28;20035;-63
2023/09/03 11:37:34;;;;;;;1.60;1.30;;;25.20;99.90;;;;;;5220834;28;20033;-62
2023/09/03 11:40:06;;;;;;;1.40;1.27;;;25.50;1.00;;;;;;5211820;28;20020;-62
2023/09/03 11:42:41;;;;;;;1.42;1.30;;;25.10;99.90;;;;;;5215259;28;20036;-64
2023/09/03 11:45:12;;;;;;;1.40;1.30;;;25.20;99.90;;;;;;5209762;28;20036;-64
2023/09/03 11:47:48;;;;;;;1.40;1.30;;;25.10;99.90;;;;;;5220113;28;20409;-63
2023/09/03 11:50:20;;;;;;;1.25;1.15;;;25.70;99.90;;;;;;5229505;28;20040;-62
2023/09/03 11:52:58;;;;;;;1.95;1.50;;;25.70;99.90;;;;;;5205935;28;20618;-63
2023/09/03 11:55:37;;;;;;;1.50;1.40;;;26.20;99.90;;;;;;5233083;28;20556;-63
2023/09/03 11:58:12;;;;;;;1.80;1.38;;;26.00;99.90;;;;;;5219914;28;20040;-63
2023/09/03 12:00:44;;;;;;;1.33;1.23;;;25.90;1.00;;;;;;5232572;28;20032;-61
2023/09/03 12:03:16;;;;;;;1.65;1.50;;;25.70;1.00;;;;;;5247960;28;20226;-64
2023/09/03 12:05:50;;;;;;;1.73;1.60;;;25.60;1.00;;;;;;5205999;28;20047;-64
2023/09/03 12:08:21;;;;;;;2.67;1.50;;;25.50;1.00;;;;;;5221815;28;20044;-63
2023/09/03 12:10:52;;;;;;;1.50;1.40;;;25.90;1.00;;;;;;5237199;28;20024;-64
2023/09/03 12:13:50;;;;;;;1.60;1.40;;;26.20;1.00;;;;;;5234698;28;20127;-62
2023/09/03 12:16:23;;;;;;;1.60;1.50;;;25.90;1.00;;;;;;5231626;28;20035;-65
2023/09/03 12:18:58;;;;;;;1.67;1.38;;;26.30;1.00;;;;;;5220175;28;20032;-64
2023/09/03 12:21:36;;;;;;;1.65;1.30;;;26.50;1.00;;;;;;5236150;28;20362;-63
2023/09/03 12:24:09;;;;;;;1.50;1.40;;;26.80;1.00;;;;;;5206225;28;20040;-64
2023/09/03 12:26:43;;;;;;;1.58;1.20;;;26.80;99.90;;;;;;5248957;28;20030;-63
2023/09/03 12:29:21;;;;;;;;;;;27.40;99.90;;;;;;5238876;28;20020;-64
2023/09/03 12:31:53;;;;;;;1.30;1.20;;;27.40;99.90;;;;;;5230037;28;19919;-63
2023/09/03 12:34:35;;;;;;;3.33;1.42;;;27.00;99.90;;;;;;5250446;28;20016;-64
2023/09/03 12:37:08;;;;;;;1.05;1.02;;;26.60;99.90;;;;;;5255578;28;20016;-65
2023/09/03 12:39:42;;;;;;;1.30;1.20;;;26.60;99.90;;;;;;5205637;28;20248;-65
2023/09/03 12:42:18;;;;;;;2.22;1.10;;;26.00;99.90;;;;;;5236093;28;20020;-64
2023/09/03 12:44:51;;;;;;;1.60;1.50;;;26.70;99.90;;;;;;5221421;28;20031;-62
2023/09/03 12:47:22;;;;;;;1.52;1.42;;;27.00;99.90;;;;;;5216173;28;20042;-64
2023/09/03 12:49:58;;;;;;;1.27;1.17;;;27.00;99.90;;;;;;5252554;28;20058;-65
2023/09/03 12:52:32;;;;;;;1.38;1.27;;;27.50;41.80;;;;;;5245477;28;20242;-65
2023/09/03 12:55:03;;;;;;;1.55;1.10;;;27.60;99.90;;;;;;5250561;28;20053;-64
2023/09/03 12:57:39;;;;;;;1.65;1.05;;;28.40;97.60;;;;;;5237912;28;20032;-66
2023/09/03 13:00:11;;;;;;;1.38;1.20;;;28.40;99.90;;;;;;5235744;28;20474;-65
2023/09/03 13:02:42;;;;;;;1.30;1.10;;;27.90;96.40;;;;;;5212167;28;20708;-66
2023/09/03 13:05:13;;;;;;;1.25;1.10;;;27.60;99.90;;;;;;5232993;28;20051;-66
2023/09/03 13:07:44;;;;;;;1.65;1.55;;;27.20;48.40;;;;;;5237408;28;20036;-64
2023/09/03 13:10:17;;;;;;;1.33;1.23;;;25.80;1.00;;;;;;5253269;28;20233;-65
2023/09/03 13:12:48;;;;;;;1.30;1.20;;;25.90;99.90;;;;;;5224753;28;20052;-62
2023/09/03 13:15:20;;;;;;;1.52;1.40;;;26.50;99.90;;;;;;5227344;28;20357;-65
2023/09/03 13:17:51;;;;;;;1.17;1.00;;;26.20;1.00;;;;;;5230546;28;20035;-64
2023/09/03 13:20:23;;;;;;;1.30;1.20;;;26.30;99.90;;;;;;5232837;28;20040;-65
2023/09/03 13:22:54;;;;;;;1.17;1.08;;;26.30;1.00;;;;;;5243349;28;20213;-66
2023/09/03 13:25:30;;;;;;;3.10;1.50;;;25.40;1.00;;;;;;5251960;28;20534;-63
2023/09/03 13:28:03;;;;;;;1.20;1.10;;;24.50;1.00;;;;;;5215298;28;20040;-64
2023/09/03 13:30:36;;;;;;;0.93;0.93;;;24.40;1.00;;;;;;5216294;28;20024;-62